Time;durP1;ratioP1;P1;durP2;ratioP2;P2;SDS_P1;SDS_P2;PMS_P1;PMS_P2;Temp;Humidity;BMP_temperature;BMP_pressure;BME280_temperature;BME280_humidity;BME280_pressure;Samples;Min_cycle;Max_cycle;Signal;HPM_P1;HPM_P2
2021/01/17 00:00:45;;;;;;;24.90;13.35;;;;;;;;;;5015044;28;20480;-71
2021/01/17 00:03:12;;;;;;;22.17;12.85;;;;;;;;;;5014976;28;20351;-71
2021/01/17 00:05:39;;;;;;;22.98;12.90;;;;;;;;;;5014586;28;20452;-70
2021/01/17 00:08:12;;;;;;;23.30;12.43;;;;;;;;;;5014954;28;20049;-70
2021/01/17 00:10:39;;;;;;;19.98;11.50;;;;;;;;;;5014721;28;20508;-71
2021/01/17 00:13:06;;;;;;;22.38;11.95;;;;;;;;;;5013703;28;20050;-70
2021/01/17 00:15:33;;;;;;;20.65;11.20;;;;;;;;;;5014638;28;20088;-71
2021/01/17 00:17:59;;;;;;;19.83;10.77;;;;;;;;;;5014661;28;20058;-71
2021/01/17 00:20:25;;;;;;;21.90;11.20;;;;;;;;;;5010271;28;20062;-71
2021/01/17 00:22:54;;;;;;;23.13;11.07;;;;;;;;;;4994960;28;20136;-70
2021/01/17 00:25:20;;;;;;;16.08;9.40;;;;;;;;;;4998463;28;20046;-71
2021/01/17 00:27:49;;;;;;;20.70;10.45;;;;;;;;;;5014504;28;20111;-71
2021/01/17 00:30:16;;;;;;;18.17;9.95;;;;;;;;;;5014489;28;20053;-71
2021/01/17 00:32:47;;;;;;;17.63;9.60;;;;;;;;;;5012671;28;20045;-71
2021/01/17 00:35:14;;;;;;;21.15;10.43;;;;;;;;;;5014279;28;20050;-71
2021/01/17 00:37:40;;;;;;;20.05;10.30;;;;;;;;;;5014319;28;20050;-71
2021/01/17 00:40:07;;;;;;;18.88;10.55;;;;;;;;;;5005107;28;20112;-71
2021/01/17 00:42:33;;;;;;;18.15;10.18;;;;;;;;;;5014356;28;20458;-71
2021/01/17 00:44:59;;;;;;;19.17;10.27;;;;;;;;;;5014041;28;20101;-71
2021/01/17 00:47:25;;;;;;;21.48;10.65;;;;;;;;;;5014174;28;20189;-71
2021/01/17 00:49:51;;;;;;;17.73;9.68;;;;;;;;;;5014077;28;20138;-70
2021/01/17 00:52:21;;;;;;;20.70;11.10;;;;;;;;;;5014026;28;20050;-70
2021/01/17 00:54:48;;;;;;;18.05;10.10;;;;;;;;;;5014022;28;20050;-70
2021/01/17 00:57:15;;;;;;;17.27;9.57;;;;;;;;;;5013924;28;20085;-71
2021/01/17 00:59:41;;;;;;;15.57;9.10;;;;;;;;;;4996818;28;20046;-71
2021/01/17 01:02:07;;;;;;;18.35;9.90;;;;;;;;;;5013699;28;20143;-71
2021/01/17 01:04:34;;;;;;;19.85;10.10;;;;;;;;;;5013795;28;20111;-71
2021/01/17 01:07:00;;;;;;;19.08;10.52;;;;;;;;;;5013599;28;20112;-71
2021/01/17 01:09:26;;;;;;;20.00;9.90;;;;;;;;;;5013863;28;20128;-71
2021/01/17 01:11:53;;;;;;;22.70;11.15;;;;;;;;;;5013778;28;20485;-71
2021/01/17 01:14:19;;;;;;;22.15;11.38;;;;;;;;;;5012618;28;20050;-71
2021/01/17 01:16:52;;;;;;;21.95;11.88;;;;;;;;;;5013177;28;20579;-71
2021/01/17 01:19:19;;;;;;;24.58;12.65;;;;;;;;;;5013983;28;20550;-71
2021/01/17 01:21:45;;;;;;;25.02;14.57;;;;;;;;;;5013431;28;20045;-71
2021/01/17 01:24:12;;;;;;;24.90;13.25;;;;;;;;;;5013805;28;20053;-71
2021/01/17 01:26:45;;;;;;;26.40;14.32;;;;;;;;;;5013483;28;20084;-71
2021/01/17 01:29:11;;;;;;;;;;;;;;;;;;5014167;28;20054;-71
2021/01/17 01:31:38;;;;;;;24.70;13.90;;;;;;;;;;5013260;28;20015;-71
2021/01/17 01:34:05;;;;;;;29.45;15.27;;;;;;;;;;5013254;28;20108;-71
2021/01/17 01:36:41;;;;;;;28.77;13.90;;;;;;;;;;5012890;28;20501;-70
2021/01/17 01:39:09;;;;;;;27.17;15.30;;;;;;;;;;5013256;28;20088;-70
2021/01/17 01:41:40;;;;;;;28.95;14.73;;;;;;;;;;5011883;28;20575;-71
2021/01/17 01:44:07;;;;;;;26.83;15.23;;;;;;;;;;5012530;28;20050;-71
2021/01/17 01:46:39;;;;;;;26.40;14.73;;;;;;;;;;5012762;28;20492;-70
2021/01/17 01:49:06;;;;;;;29.83;14.87;;;;;;;;;;5013187;28;20104;-71
2021/01/17 01:51:32;;;;;;;26.13;14.77;;;;;;;;;;5013043;28;20547;-71
2021/01/17 01:53:58;;;;;;;28.45;14.60;;;;;;;;;;5012877;28;20108;-71
2021/01/17 01:56:25;;;;;;;27.15;14.82;;;;;;;;;;5012647;28;20137;-70
2021/01/17 01:58:52;;;;;;;28.48;15.00;;;;;;;;;;5012709;28;20129;-70
2021/01/17 02:01:19;;;;;;;30.60;14.30;;;;;;;;;;5012837;28;20595;-71
2021/01/17 02:03:46;;;;;;;30.05;14.88;;;;;;;;;;5011682;28;20108;-70
2021/01/17 02:06:13;;;;;;;25.52;14.73;;;;;;;;;;5012931;28;20349;-71
2021/01/17 02:08:51;;;;;;;28.20;15.38;;;;;;;;;;4995188;28;20084;-70
2021/01/17 02:11:40;;;;;;;24.25;13.20;;;;;;;;;;5012727;28;20497;-71
2021/01/17 02:14:32;;;;;;;25.67;14.13;;;;;;;;;;5011515;28;20046;-71
2021/01/17 02:16:58;;;;;;;23.63;13.35;;;;;;;;;;4998036;28;20061;-70
2021/01/17 02:19:29;;;;;;;29.02;14.75;;;;;;;;;;5011412;28;20532;-71
2021/01/17 02:21:59;;;;;;;29.60;15.90;;;;;;;;;;5012477;28;20177;-71
2021/01/17 02:24:37;;;;;;;24.27;14.43;;;;;;;;;;5012469;28;20488;-71
2021/01/17 02:27:03;;;;;;;29.48;15.02;;;;;;;;;;5011087;28;20085;-71
2021/01/17 02:29:36;;;;;;;27.55;14.75;;;;;;;;;;5012447;28;20049;-70
2021/01/17 02:32:03;;;;;;;26.20;15.20;;;;;;;;;;4994954;28;20095;-70
2021/01/17 02:34:29;;;;;;;30.05;15.70;;;;;;;;;;5012230;28;20458;-71
2021/01/17 02:37:04;;;;;;;29.08;15.43;;;;;;;;;;4978564;28;20537;-71
2021/01/17 02:39:39;;;;;;;30.15;14.63;;;;;;;;;;5011094;28;20528;-71
2021/01/17 02:42:05;;;;;;;25.83;14.10;;;;;;;;;;5011099;28;20076;-72
2021/01/17 02:44:32;;;;;;;27.33;14.18;;;;;;;;;;5012076;28;20054;-72
2021/01/17 02:46:59;;;;;;;24.83;15.23;;;;;;;;;;5011859;28;20053;-71
2021/01/17 02:49:25;;;;;;;29.20;15.75;;;;;;;;;;5012302;28;20086;-71
2021/01/17 02:51:52;;;;;;;25.90;15.38;;;;;;;;;;5010950;28;20054;-71
2021/01/17 02:54:28;;;;;;;30.00;14.98;;;;;;;;;;5012135;28;20467;-71
2021/01/17 02:57:03;;;;;;;27.20;15.02;;;;;;;;;;5010487;28;20123;-71
2021/01/17 02:59:53;;;;;;;28.15;14.45;;;;;;;;;;5006736;28;20050;-71
2021/01/17 03:02:21;;;;;;;27.90;14.10;;;;;;;;;;4992312;28;20547;-71
2021/01/17 03:04:54;;;;;;;30.25;15.68;;;;;;;;;;4975139;28;20100;-71
2021/01/17 03:07:20;;;;;;;19.30;10.70;;;;;;;;;;4975434;28;20054;-72
2021/01/17 03:09:46;;;;;;;26.30;14.70;;;;;;;;;;4990975;28;20303;-71
2021/01/17 03:12:12;;;;;;;32.53;15.80;;;;;;;;;;4993830;28;20043;-70
2021/01/17 03:14:39;;;;;;;28.90;15.55;;;;;;;;;;5011735;28;20057;-70
2021/01/17 03:17:06;;;;;;;30.05;15.20;;;;;;;;;;5011774;28;20073;-71
2021/01/17 03:19:33;;;;;;;28.63;15.68;;;;;;;;;;5011863;28;20054;-71
2021/01/17 03:22:00;;;;;;;27.58;15.40;;;;;;;;;;5011695;28;20062;-71
2021/01/17 03:24:27;;;;;;;27.73;14.50;;;;;;;;;;5011862;28;20046;-71
2021/01/17 03:26:53;;;;;;;28.33;14.82;;;;;;;;;;5041209;23;20048;-70
2021/01/17 03:29:19;;;;;;;27.83;15.63;;;;;;;;;;5031537;28;20045;-70
2021/01/17 03:31:45;;;;;;;27.25;15.10;;;;;;;;;;5031463;28;20045;-70
2021/01/17 03:34:12;;;;;;;25.52;14.73;;;;;;;;;;5030456;28;20107;-70
2021/01/17 03:36:39;;;;;;;27.10;14.73;;;;;;;;;;5031177;28;20127;-70
2021/01/17 03:39:05;;;;;;;28.58;15.23;;;;;;;;;;5031306;28;20057;-71
2021/01/17 03:41:31;;;;;;;26.50;14.95;;;;;;;;;;5031329;28;20077;-70
2021/01/17 03:43:57;;;;;;;27.67;16.35;;;;;;;;;;5031247;28;20523;-70
2021/01/17 03:46:24;;;;;;;27.80;15.70;;;;;;;;;;5031090;28;20467;-70
2021/01/17 03:48:50;;;;;;;27.02;15.50;;;;;;;;;;5031279;28;20056;-70
2021/01/17 03:51:16;;;;;;;26.63;14.98;;;;;;;;;;5030444;28;20045;-70
2021/01/17 03:53:42;;;;;;;27.45;15.02;;;;;;;;;;5031275;28;20053;-70
2021/01/17 03:56:09;;;;;;;25.63;13.95;;;;;;;;;;5031294;28;20053;-71
2021/01/17 03:58:35;;;;;;;25.00;13.88;;;;;;;;;;5027341;28;20116;-70
2021/01/17 04:01:01;;;;;;;27.13;14.57;;;;;;;;;;5011343;28;20077;-70
2021/01/17 04:03:27;;;;;;;27.35;14.88;;;;;;;;;;5011272;28;20069;-70
2021/01/17 04:05:54;;;;;;;24.17;13.60;;;;;;;;;;5011223;28;20493;-69
2021/01/17 04:08:20;;;;;;;24.20;14.07;;;;;;;;;;5028576;28;20054;-70
2021/01/17 04:10:46;;;;;;;26.90;14.18;;;;;;;;;;5034643;28;20076;-70
2021/01/17 04:13:12;;;;;;;23.50;13.93;;;;;;;;;;5035077;28;20053;-70
2021/01/17 04:15:38;;;;;;;28.75;16.55;;;;;;;;;;5034416;28;20574;-70
2021/01/17 04:18:04;;;;;;;28.40;14.52;;;;;;;;;;5022703;28;20064;-69
2021/01/17 04:20:30;;;;;;;26.20;13.80;;;;;;;;;;5014835;28;20053;-69
2021/01/17 04:23:01;;;;;;;26.15;14.48;;;;;;;;;;5014617;28;20559;-70
2021/01/17 04:25:29;;;;;;;24.08;12.77;;;;;;;;;;5014740;28;20493;-70
2021/01/17 04:27:56;;;;;;;23.83;13.90;;;;;;;;;;5014396;28;20497;-69
2021/01/17 04:30:22;;;;;;;26.33;15.00;;;;;;;;;;5014631;28;20100;-70
2021/01/17 04:32:49;;;;;;;30.63;16.85;;;;;;;;;;5014490;28;20054;-70
2021/01/17 04:35:15;;;;;;;28.70;15.98;;;;;;;;;;5016091;28;20096;-69
2021/01/17 04:37:41;;;;;;;30.15;16.17;;;;;;;;;;5034342;28;20416;-70
2021/01/17 04:40:08;;;;;;;31.17;16.52;;;;;;;;;;5034116;28;20053;-70
2021/01/17 04:42:40;;;;;;;31.98;16.52;;;;;;;;;;5028491;28;20546;-70
2021/01/17 04:45:09;;;;;;;31.30;17.30;;;;;;;;;;5034170;28;20080;-69
2021/01/17 04:47:36;;;;;;;30.10;16.50;;;;;;;;;;5034319;28;20495;-69
2021/01/17 04:50:06;;;;;;;28.83;15.38;;;;;;;;;;5032881;28;20053;-70
2021/01/17 04:52:59;;;;;;;30.52;14.90;;;;;;;;;;5034133;28;20095;-70
2021/01/17 04:55:26;;;;;;;29.38;15.88;;;;;;;;;;5032747;28;20096;-69
2021/01/17 04:58:18;;;;;;;31.63;15.65;;;;;;;;;;5033802;28;20111;-70
2021/01/17 05:00:57;;;;;;;29.38;15.23;;;;;;;;;;5023534;28;20465;-70
2021/01/17 05:03:39;;;;;;;27.33;15.77;;;;;;;;;;5014126;28;20045;-70
2021/01/17 05:06:27;;;;;;;27.52;15.73;;;;;;;;;;4998245;28;20049;-70
2021/01/17 05:09:02;;;;;;;31.90;16.42;;;;;;;;;;5013914;28;20120;-70
2021/01/17 05:11:41;;;;;;;31.80;16.05;;;;;;;;;;5013777;28;20500;-70
2021/01/17 05:14:14;;;;;;;32.95;16.58;;;;;;;;;;5013715;28;20104;-70
2021/01/17 05:16:45;;;;;;;29.83;17.30;;;;;;;;;;5013413;28;20108;-69
2021/01/17 05:19:15;;;;;;;29.70;15.55;;;;;;;;;;5017084;28;20118;-70
2021/01/17 05:21:47;;;;;;;32.20;16.48;;;;;;;;;;5032200;28;20077;-70
2021/01/17 05:24:15;;;;;;;33.85;18.27;;;;;;;;;;5021002;28;20053;-70
2021/01/17 05:26:50;;;;;;;33.17;17.65;;;;;;;;;;5030278;28;20053;-70
2021/01/17 05:29:18;;;;;;;34.63;17.58;;;;;;;;;;5027913;28;20054;-70
2021/01/17 05:31:55;;;;;;;31.77;16.98;;;;;;;;;;5013621;28;20049;-70
2021/01/17 05:34:21;;;;;;;28.15;15.95;;;;;;;;;;5012520;28;20090;-70
2021/01/17 05:36:47;;;;;;;32.22;16.55;;;;;;;;;;5013107;28;20487;-70
2021/01/17 05:39:14;;;;;;;30.33;17.45;;;;;;;;;;4996660;28;20045;-70
2021/01/17 05:41:40;;;;;;;34.10;17.98;;;;;;;;;;5012997;28;20496;-70
2021/01/17 05:44:06;;;;;;;33.50;17.30;;;;;;;;;;5013362;28;20050;-70
2021/01/17 05:46:32;;;;;;;29.92;16.80;;;;;;;;;;5012989;28;20053;-70
2021/01/17 05:49:11;;;;;;;32.13;16.92;;;;;;;;;;5013328;28;20066;-70
2021/01/17 05:51:37;;;;;;;32.15;15.95;;;;;;;;;;5028486;28;20530;-71
2021/01/17 05:54:10;;;;;;;31.75;16.80;;;;;;;;;;5013112;28;20100;-71
2021/01/17 05:56:37;;;;;;;28.95;15.75;;;;;;;;;;5012862;28;20053;-71
2021/01/17 05:59:04;;;;;;;34.22;18.33;;;;;;;;;;5013150;28;20477;-70
2021/01/17 06:01:34;;;;;;;31.75;17.90;;;;;;;;;;5026929;28;20053;-71
2021/01/17 06:04:13;;;;;;;34.53;17.13;;;;;;;;;;5032423;28;20057;-70
2021/01/17 06:06:39;;;;;;;32.92;16.20;;;;;;;;;;5032358;28;20467;-70
2021/01/17 06:09:05;;;;;;;30.58;16.75;;;;;;;;;;5012413;28;20050;-71
2021/01/17 06:11:32;;;;;;;33.63;16.73;;;;;;;;;;5011634;28;20084;-70
2021/01/17 06:14:00;;;;;;;33.63;16.75;;;;;;;;;;5012483;28;20108;-70
2021/01/17 06:16:34;;;;;;;31.33;16.42;;;;;;;;;;5022203;28;20080;-71
2021/01/17 06:19:02;;;;;;;33.60;16.75;;;;;;;;;;5022617;28;20058;-71
2021/01/17 06:21:29;;;;;;;34.45;18.65;;;;;;;;;;5024057;28;20084;-71
2021/01/17 06:23:57;;;;;;;31.13;16.40;;;;;;;;;;5032041;28;20049;-71
2021/01/17 06:26:28;;;;;;;34.42;17.33;;;;;;;;;;4977244;28;27053;-70
2021/01/17 06:28:54;;;;;;;34.17;16.27;;;;;;;;;;5031628;28;20057;-70
2021/01/17 06:31:28;;;;;;;31.95;17.08;;;;;;;;;;5026658;28;20112;-70
2021/01/17 06:34:11;;;;;;;28.88;15.95;;;;;;;;;;5032155;28;20056;-70
2021/01/17 06:36:46;;;;;;;34.45;17.13;;;;;;;;;;5031949;28;20049;-70
2021/01/17 06:39:21;;;;;;;32.72;16.48;;;;;;;;;;5032070;28;20397;-70
2021/01/17 06:41:57;;;;;;;30.77;16.80;;;;;;;;;;5012065;28;20084;-71
2021/01/17 06:44:31;;;;;;;29.80;16.33;;;;;;;;;;5011252;28;20050;-71
2021/01/17 06:46:58;;;;;;;33.30;16.42;;;;;;;;;;5011882;28;20050;-71
2021/01/17 06:49:27;;;;;;;36.63;18.52;;;;;;;;;;5016114;28;20136;-71
2021/01/17 06:51:54;;;;;;;33.28;17.27;;;;;;;;;;5031865;28;20452;-71
2021/01/17 06:54:21;;;;;;;32.08;16.90;;;;;;;;;;5031930;28;20056;-70
2021/01/17 06:56:49;;;;;;;34.95;17.90;;;;;;;;;;5031516;28;20053;-70
2021/01/17 06:59:37;;;;;;;33.70;17.02;;;;;;;;;;5031880;28;20107;-70
2021/01/17 07:02:06;;;;;;;31.23;16.02;;;;;;;;;;5031556;28;20072;-71
2021/01/17 07:04:48;;;;;;;39.70;18.60;;;;;;;;;;5011970;28;20459;-71
2021/01/17 07:07:45;;;;;;;32.40;17.23;;;;;;;;;;5010638;28;20053;-70
2021/01/17 07:10:11;;;;;;;32.38;16.42;;;;;;;;;;5020050;28;20042;-70
2021/01/17 07:13:09;;;;;;;31.77;16.95;;;;;;;;;;5030604;28;20084;-71
2021/01/17 07:15:42;;;;;;;34.15;17.65;;;;;;;;;;5031648;28;20053;-71
2021/01/17 07:18:10;;;;;;;38.15;19.05;;;;;;;;;;5031801;28;20495;-71
2021/01/17 07:20:46;;;;;;;31.60;16.65;;;;;;;;;;5018925;28;20050;-72
2021/01/17 07:23:14;;;;;;;35.28;16.58;;;;;;;;;;5015609;28;20045;-70
2021/01/17 07:25:47;;;;;;;35.05;18.02;;;;;;;;;;5020333;28;20524;-72
2021/01/17 07:28:20;;;;;;;33.92;17.25;;;;;;;;;;5020894;28;20100;-72
2021/01/17 07:30:46;;;;;;;;;;;;;;;;;;5020796;28;20460;-70
2021/01/17 07:33:37;;;;;;;35.78;17.20;;;;;;;;;;5021949;28;20358;-70
2021/01/17 07:36:08;;;;;;;33.83;16.80;;;;;;;;;;5019616;28;20128;-70
2021/01/17 07:38:35;;;;;;;36.15;18.42;;;;;;;;;;5023411;28;20057;-70
2021/01/17 07:41:06;;;;;;;35.63;17.30;;;;;;;;;;5021915;28;20053;-71
2021/01/17 07:43:33;;;;;;;36.67;17.67;;;;;;;;;;5022787;28;20045;-70
2021/01/17 07:46:05;;;;;;;37.65;18.20;;;;;;;;;;5023189;28;20506;-70
2021/01/17 07:48:31;;;;;;;33.75;16.75;;;;;;;;;;5025033;28;20053;-70
2021/01/17 07:50:59;;;;;;;37.33;17.13;;;;;;;;;;5025099;28;20141;-70
2021/01/17 07:53:37;;;;;;;32.30;16.98;;;;;;;;;;5023824;28;20041;-71
2021/01/17 07:56:10;;;;;;;30.48;16.13;;;;;;;;;;5024588;28;20053;-69
2021/01/17 07:58:40;;;;;;;39.72;17.75;;;;;;;;;;5024001;28;20058;-69
2021/01/17 08:01:27;;;;;;;29.88;15.85;;;;;;;;;;5013505;28;20050;-68
2021/01/17 08:03:53;;;;;;;37.22;18.95;;;;;;;;;;5012375;28;20576;-69
2021/01/17 08:06:19;;;;;;;33.60;17.52;;;;;;;;;;5011999;28;20050;-69
2021/01/17 08:08:46;;;;;;;34.45;17.63;;;;;;;;;;4995356;28;20057;-69
2021/01/17 08:11:42;;;;;;;35.55;17.92;;;;;;;;;;5013266;28;20108;-69
2021/01/17 08:14:20;;;;;;;37.15;18.67;;;;;;;;;;5013399;28;20523;-68
2021/01/17 08:17:05;;;;;;;37.00;18.38;;;;;;;;;;5013183;28;20050;-70
2021/01/17 08:19:41;;;;;;;33.30;17.05;;;;;;;;;;5013251;28;20050;-69
2021/01/17 08:22:16;;;;;;;31.48;17.05;;;;;;;;;;5012736;28;20045;-69
2021/01/17 08:24:46;;;;;;;32.92;17.13;;;;;;;;;;5013065;28;20054;-70
2021/01/17 08:27:42;;;;;;;31.85;17.38;;;;;;;;;;5011661;28;20107;-70
2021/01/17 08:30:08;;;;;;;38.50;18.40;;;;;;;;;;5027103;28;20058;-69
2021/01/17 08:32:35;;;;;;;33.83;18.75;;;;;;;;;;5013056;28;20100;-70
2021/01/17 08:37:44;;;;;;;37.38;19.45;;;;;;;;;;5027898;28;20057;-69
2021/01/17 08:40:31;;;;;;;40.63;20.08;;;;;;;;;;5032670;28;20397;-69
2021/01/17 08:42:59;;;;;;;43.55;20.75;;;;;;;;;;5021272;28;20077;-70
2021/01/17 08:45:28;;;;;;;41.35;19.75;;;;;;;;;;5031222;28;20119;-68
2021/01/17 08:47:55;;;;;;;43.05;18.75;;;;;;;;;;5031674;28;20061;-68
2021/01/17 08:50:28;;;;;;;45.58;21.75;;;;;;;;;;5032247;28;20057;-70
2021/01/17 08:53:13;;;;;;;;;;;;;;;;;;5030992;28;20072;-70
2021/01/17 08:55:40;;;;;;;35.95;17.92;;;;;;;;;;5031932;28;19925;-70
2021/01/17 08:58:07;;;;;;;34.92;17.63;;;;;;;;;;5031976;28;20420;-70
2021/01/17 09:00:48;;;;;;;36.38;20.17;;;;;;;;;;5030538;28;20053;-71
2021/01/17 09:03:25;;;;;;;35.33;17.15;;;;;;;;;;5031834;28;20049;-68
2021/01/17 09:05:52;;;;;;;36.40;18.52;;;;;;;;;;5022236;28;20050;-70
2021/01/17 09:08:18;;;;;;;36.33;18.95;;;;;;;;;;5030036;28;20108;-71
2021/01/17 09:10:45;;;;;;;33.65;17.92;;;;;;;;;;5027415;28;20845;-70
2021/01/17 09:13:19;;;;;;;38.10;19.20;;;;;;;;;;5030390;28;20041;-70
2021/01/17 09:15:51;;;;;;;37.63;19.33;;;;;;;;;;5027061;28;20448;-69
2021/01/17 09:18:32;;;;;;;36.23;18.97;;;;;;;;;;5024926;28;20083;-70
2021/01/17 09:20:58;;;;;;;32.25;17.98;;;;;;;;;;5030302;28;20080;-70
2021/01/17 09:23:24;;;;;;;33.75;19.27;;;;;;;;;;5025208;28;20049;-71
2021/01/17 09:25:59;;;;;;;36.92;20.58;;;;;;;;;;5024534;28;20789;-69
2021/01/17 09:28:29;;;;;;;35.03;18.40;;;;;;;;;;5028008;28;20058;-69
2021/01/17 09:30:59;;;;;;;31.75;18.08;;;;;;;;;;5018704;28;20050;-68
2021/01/17 09:33:27;;;;;;;39.95;20.30;;;;;;;;;;5030249;28;20049;-68
2021/01/17 09:35:54;;;;;;;35.97;19.42;;;;;;;;;;5026944;28;20107;-68
2021/01/17 09:38:23;;;;;;;33.60;17.92;;;;;;;;;;5027713;28;20433;-68
2021/01/17 09:40:52;;;;;;;35.42;17.95;;;;;;;;;;5024356;28;20045;-68
2021/01/17 09:43:19;;;;;;;35.05;18.45;;;;;;;;;;5029447;28;20042;-69
2021/01/17 09:45:48;;;;;;;38.83;20.42;;;;;;;;;;5029421;28;20084;-69
2021/01/17 09:48:21;;;;;;;37.65;21.02;;;;;;;;;;5029005;28;20053;-69
2021/01/17 09:50:47;;;;;;;37.60;20.63;;;;;;;;;;5029610;28;20131;-68
2021/01/17 09:53:14;;;;;;;39.40;21.33;;;;;;;;;;5029966;28;20042;-68
2021/01/17 09:55:41;;;;;;;37.95;21.45;;;;;;;;;;5029011;28;20131;-68
2021/01/17 09:58:09;;;;;;;38.60;20.30;;;;;;;;;;5027397;28;20130;-68
2021/01/17 10:00:36;;;;;;;34.65;19.67;;;;;;;;;;5029209;28;20546;-68
2021/01/17 10:03:09;;;;;;;39.42;20.88;;;;;;;;;;5028873;28;20445;-68
2021/01/17 10:05:36;;;;;;;37.75;20.85;;;;;;;;;;5026410;28;20052;-69
2021/01/17 10:08:04;;;;;;;36.92;19.45;;;;;;;;;;5042686;22;20073;-72
2021/01/17 10:10:35;;;;;;;35.88;19.77;;;;;;;;;;5002468;28;20504;-72
2021/01/17 10:13:02;;;;;;;31.83;18.83;;;;;;;;;;4999682;28;20137;-72
2021/01/17 10:15:28;;;;;;;37.40;20.38;;;;;;;;;;5000319;28;20099;-71
2021/01/17 10:17:54;;;;;;;34.05;19.92;;;;;;;;;;4984719;28;20079;-71
2021/01/17 10:20:25;;;;;;;40.55;23.38;;;;;;;;;;5005811;28;20500;-72
2021/01/17 10:23:12;;;;;;;34.40;19.40;;;;;;;;;;5002855;28;20052;-72
2021/01/17 10:25:38;;;;;;;35.22;19.20;;;;;;;;;;5005315;28;20058;-71
2021/01/17 10:28:06;;;;;;;35.40;19.10;;;;;;;;;;4989113;28;20112;-71
2021/01/17 10:30:36;;;;;;;34.97;19.38;;;;;;;;;;5006357;28;20077;-70
2021/01/17 10:33:11;;;;;;;30.17;18.35;;;;;;;;;;4983078;28;20074;-71
2021/01/17 10:35:41;;;;;;;35.47;19.05;;;;;;;;;;4988911;28;20042;-71
2021/01/17 10:38:09;;;;;;;36.58;19.33;;;;;;;;;;5004933;28;20150;-71
2021/01/17 10:40:35;;;;;;;26.52;17.77;;;;;;;;;;4982688;28;20082;-71
2021/01/17 10:43:26;;;;;;;36.00;20.17;;;;;;;;;;4999258;28;20148;-71
2021/01/17 10:46:15;;;;;;;29.00;16.85;;;;;;;;;;4985107;28;20085;-71
2021/01/17 10:48:52;;;;;;;33.97;19.60;;;;;;;;;;4963409;28;20062;-71
2021/01/17 10:51:25;;;;;;;34.17;17.23;;;;;;;;;;4965058;28;20057;-69
2021/01/17 10:53:52;;;;;;;34.10;18.85;;;;;;;;;;4986084;28;20104;-69
2021/01/17 10:56:20;;;;;;;27.90;17.05;;;;;;;;;;4986389;28;20444;-70
2021/01/17 10:58:46;;;;;;;29.60;17.08;;;;;;;;;;4997557;28;20085;-72
2021/01/17 11:01:32;;;;;;;28.23;16.52;;;;;;;;;;5000869;28;20050;-78
2021/01/17 11:04:01;;;;;;;23.85;14.98;;;;;;;;;;4992282;28;20461;-77
2021/01/17 11:06:28;;;;;;;29.77;16.70;;;;;;;;;;4966423;28;20046;-75
2021/01/17 11:09:35;;;;;;;28.50;15.93;;;;;;;;;;4991652;28;20104;-79
2021/01/17 11:12:36;;;;;;;27.48;15.27;;;;;;;;;;4914880;29;20067;-76
2021/01/17 11:15:13;;;;;;;30.40;16.95;;;;;;;;;;4920026;29;20059;-74
2021/01/17 11:17:56;;;;;;;28.58;16.20;;;;;;;;;;4942352;29;20070;-78
2021/01/17 11:20:29;;;;;;;32.83;16.30;;;;;;;;;;4898105;29;20510;-77
2021/01/17 11:23:04;;;;;;;30.27;16.08;;;;;;;;;;4912695;29;20051;-76
2021/01/17 11:25:30;;;;;;;29.65;17.05;;;;;;;;;;4926517;29;20082;-74
2021/01/17 11:27:59;;;;;;;29.17;16.83;;;;;;;;;;4916670;29;20499;-70
2021/01/17 11:30:26;;;;;;;27.25;15.25;;;;;;;;;;4929020;29;20482;-69
2021/01/17 11:32:52;;;;;;;26.73;15.40;;;;;;;;;;4940964;29;20063;-68
2021/01/17 11:35:23;;;;;;;28.00;15.85;;;;;;;;;;4944269;29;20168;-69
2021/01/17 11:37:50;;;;;;;30.85;17.20;;;;;;;;;;4924690;29;20056;-70
2021/01/17 11:40:19;;;;;;;30.65;17.50;;;;;;;;;;4925045;29;20059;-70
2021/01/17 11:42:45;;;;;;;31.35;17.10;;;;;;;;;;4909233;29;20067;-70
2021/01/17 11:45:17;;;;;;;31.65;17.05;;;;;;;;;;4928157;29;20102;-70
2021/01/17 11:47:44;;;;;;;32.05;17.85;;;;;;;;;;4907329;29;20051;-70
2021/01/17 11:50:18;;;;;;;36.42;19.95;;;;;;;;;;4943340;28;20063;-70
2021/01/17 11:52:57;;;;;;;37.25;20.42;;;;;;;;;;4985399;28;20097;-67
2021/01/17 11:55:23;;;;;;;32.67;19.98;;;;;;;;;;5003430;28;20508;-69
2021/01/17 11:57:49;;;;;;;36.42;20.60;;;;;;;;;;4984871;28;20050;-67
2021/01/17 12:00:16;;;;;;;38.85;19.52;;;;;;;;;;4999768;28;20053;-68
2021/01/17 12:02:42;;;;;;;35.65;20.55;;;;;;;;;;5000678;28;20554;-68
2021/01/17 12:05:09;;;;;;;33.33;20.45;;;;;;;;;;5003205;28;20058;-68
2021/01/17 12:07:35;;;;;;;32.70;18.25;;;;;;;;;;4982244;28;20078;-67
2021/01/17 12:10:06;;;;;;;34.80;19.83;;;;;;;;;;4985626;28;20049;-69
2021/01/17 12:12:37;;;;;;;29.40;17.20;;;;;;;;;;4987926;28;20042;-68
2021/01/17 12:15:08;;;;;;;31.85;18.17;;;;;;;;;;4984383;28;20141;-66
2021/01/17 12:17:34;;;;;;;28.92;16.50;;;;;;;;;;4965162;28;20051;-68
2021/01/17 12:20:01;;;;;;;33.80;17.10;;;;;;;;;;4998752;28;20066;-67
2021/01/17 12:22:28;;;;;;;28.95;17.67;;;;;;;;;;4983704;28;20050;-67
2021/01/17 12:24:54;;;;;;;32.42;18.65;;;;;;;;;;4984656;28;20108;-67
2021/01/17 12:27:20;;;;;;;30.45;17.25;;;;;;;;;;5002183;28;20155;-68
2021/01/17 12:29:46;;;;;;;31.17;18.05;;;;;;;;;;5002410;28;20101;-67
2021/01/17 12:32:12;;;;;;;37.22;19.20;;;;;;;;;;5008915;28;20156;-67
2021/01/17 12:34:38;;;;;;;31.42;18.00;;;;;;;;;;5004727;28;20638;-68
2021/01/17 12:37:05;;;;;;;34.22;17.90;;;;;;;;;;5003762;28;20471;-67
2021/01/17 12:39:31;;;;;;;30.25;16.75;;;;;;;;;;5000355;28;20105;-68
2021/01/17 12:41:58;;;;;;;34.20;17.75;;;;;;;;;;4959773;28;20510;-67
2021/01/17 12:44:24;;;;;;;26.52;15.70;;;;;;;;;;5000754;28;20097;-68
2021/01/17 12:46:51;;;;;;;29.45;16.45;;;;;;;;;;5001280;28;20057;-67
2021/01/17 12:49:17;;;;;;;31.63;17.92;;;;;;;;;;4982987;28;20065;-66
2021/01/17 12:51:44;;;;;;;31.63;16.83;;;;;;;;;;4984325;28;20078;-68
2021/01/17 12:54:10;;;;;;;24.80;14.68;;;;;;;;;;4980537;28;20324;-68
2021/01/17 12:56:36;;;;;;;29.75;16.92;;;;;;;;;;4997276;28;20050;-68
2021/01/17 12:59:03;;;;;;;26.58;15.75;;;;;;;;;;5001307;28;20076;-67
2021/01/17 13:01:29;;;;;;;29.00;16.42;;;;;;;;;;4983742;28;20097;-67
2021/01/17 13:03:55;;;;;;;28.95;16.67;;;;;;;;;;4975237;28;20079;-68
2021/01/17 13:06:22;;;;;;;26.30;14.27;;;;;;;;;;5000773;28;20078;-67
2021/01/17 13:08:48;;;;;;;25.60;15.60;;;;;;;;;;5002724;28;20460;-67
2021/01/17 13:11:15;;;;;;;26.48;15.48;;;;;;;;;;5000543;28;20047;-68
2021/01/17 13:13:43;;;;;;;27.83;14.85;;;;;;;;;;5000039;28;20054;-68
2021/01/17 13:16:14;;;;;;;30.35;16.00;;;;;;;;;;4984618;28;20058;-69
2021/01/17 13:18:41;;;;;;;27.90;15.27;;;;;;;;;;4996486;28;20105;-67
2021/01/17 13:21:08;;;;;;;30.23;15.98;;;;;;;;;;4999655;28;20573;-69
2021/01/17 13:23:34;;;;;;;28.33;16.90;;;;;;;;;;5000953;28;20163;-69
2021/01/17 13:26:01;;;;;;;30.65;16.60;;;;;;;;;;5003289;28;20132;-67
2021/01/17 13:28:27;;;;;;;27.98;15.98;;;;;;;;;;5001643;28;20050;-68
2021/01/17 13:30:54;;;;;;;31.05;16.95;;;;;;;;;;4967400;28;20374;-69
2021/01/17 13:33:20;;;;;;;33.03;17.40;;;;;;;;;;4973635;28;20049;-70
2021/01/17 13:35:51;;;;;;;32.55;18.20;;;;;;;;;;5000463;28;20046;-70
2021/01/17 13:38:19;;;;;;;33.85;19.45;;;;;;;;;;4985580;28;20067;-71
2021/01/17 13:40:46;;;;;;;29.05;16.67;;;;;;;;;;4988014;28;20062;-70
2021/01/17 13:43:13;;;;;;;35.30;18.05;;;;;;;;;;4971886;28;20124;-71
2021/01/17 13:45:39;;;;;;;31.60;17.55;;;;;;;;;;4984201;28;20077;-70
2021/01/17 13:48:06;;;;;;;36.22;19.63;;;;;;;;;;5009754;28;20085;-71
2021/01/17 13:50:33;;;;;;;42.00;20.75;;;;;;;;;;5009668;28;20470;-73
2021/01/17 13:53:00;;;;;;;35.75;20.00;;;;;;;;;;5007177;28;20081;-71
2021/01/17 13:55:26;;;;;;;37.05;18.90;;;;;;;;;;4990741;28;20054;-72
2021/01/17 13:57:52;;;;;;;33.47;18.95;;;;;;;;;;4974278;28;20050;-73
2021/01/17 14:00:20;;;;;;;37.33;20.80;;;;;;;;;;4990271;28;20464;-73
2021/01/17 14:02:47;;;;;;;35.95;20.05;;;;;;;;;;4990453;28;20070;-73
2021/01/17 14:05:14;;;;;;;37.95;20.75;;;;;;;;;;5009476;28;20053;-73
2021/01/17 14:07:41;;;;;;;38.90;21.67;;;;;;;;;;4976628;28;20052;-72
2021/01/17 14:10:08;;;;;;;33.53;19.90;;;;;;;;;;4993163;28;20061;-72
2021/01/17 14:12:35;;;;;;;36.05;19.25;;;;;;;;;;5001162;28;20100;-70
2021/01/17 14:15:02;;;;;;;32.15;18.75;;;;;;;;;;4974266;28;20053;-74
2021/01/17 14:17:28;;;;;;;35.55;18.70;;;;;;;;;;4959564;28;20061;-73
2021/01/17 14:19:55;;;;;;;36.70;19.10;;;;;;;;;;4985078;28;20508;-73
2021/01/17 14:22:21;;;;;;;34.38;19.73;;;;;;;;;;4974979;28;20584;-73
2021/01/17 14:24:47;;;;;;;37.67;21.15;;;;;;;;;;4989625;28;20105;-72
2021/01/17 14:27:13;;;;;;;36.22;20.08;;;;;;;;;;4993516;28;20050;-72
2021/01/17 14:29:39;;;;;;;35.97;20.58;;;;;;;;;;4993939;28;20049;-72
2021/01/17 14:32:05;;;;;;;40.50;20.75;;;;;;;;;;4996708;28;20113;-73
2021/01/17 14:34:33;;;;;;;38.25;19.85;;;;;;;;;;4983333;28;20050;-73
2021/01/17 14:36:59;;;;;;;38.75;19.02;;;;;;;;;;4964012;28;20544;-73